Time;durP1;ratioP1;P1;durP2;ratioP2;P2;SDS_P1;SDS_P2;PMS_P1;PMS_P2;Temp;Humidity;BMP_temperature;BMP_pressure;BME280_temperature;BME280_humidity;BME280_pressure;Samples;Min_cycle;Max_cycle;Signal;HPM_P1;HPM_P2
2023/01/08 00:01:17;;;;;;;;;;;10.80;77.90;;;;;;5025362;28;19913;-89
2023/01/08 00:03:46;;;;;;;;;;;10.90;77.90;;;;;;5013644;28;19936;-89
2023/01/08 00:06:12;;;;;;;;;;;10.90;78.10;;;;;;5007351;28;20295;-90
2023/01/08 00:08:38;;;;;;;;;;;10.80;78.40;;;;;;5013037;28;20072;-90
2023/01/08 00:11:04;;;;;;;;;;;10.80;78.20;;;;;;5028604;28;20034;-90
2023/01/08 00:13:29;;;;;;;;;;;10.80;78.50;;;;;;5006579;28;20016;-90
2023/01/08 00:15:55;;;;;;;;;;;10.90;78.50;;;;;;5026785;28;19901;-90
2023/01/08 00:18:21;;;;;;;;;;;10.80;78.30;;;;;;5028005;28;19928;-90
2023/01/08 00:20:46;;;;;;;;;;;10.90;78.40;;;;;;5025417;28;20336;-90
2023/01/08 00:23:12;;;;;;;;;;;10.90;78.30;;;;;;5012900;28;20008;-90
2023/01/08 00:25:38;;;;;;;;;;;10.90;78.70;;;;;;5009715;28;20633;-90
2023/01/08 00:28:06;;;;;;;;;;;10.90;78.60;;;;;;4997851;28;19967;-90
2023/01/08 00:30:32;;;;;;;;;;;10.90;78.80;;;;;;5005941;28;20426;-91
2023/01/08 00:32:58;;;;;;;;;;;10.90;78.70;;;;;;5010725;28;20037;-90
2023/01/08 00:35:23;;;;;;;;;;;10.90;79.00;;;;;;5010907;28;19924;-90
2023/01/08 00:37:48;;;;;;;;;;;10.90;79.10;;;;;;5023333;28;19916;-90
2023/01/08 00:40:14;;;;;;;;;;;11.00;78.80;;;;;;5029190;28;19917;-89
2023/01/08 00:42:39;;;;;;;;;;;10.90;79.00;;;;;;5019665;28;19922;-89
2023/01/08 00:45:05;;;;;;;;;;;10.80;79.40;;;;;;5000322;28;19968;-89
2023/01/08 00:47:31;;;;;;;;;;;10.80;79.40;;;;;;5020078;28;20284;-89
2023/01/08 00:49:56;;;;;;;;;;;10.90;79.40;;;;;;5014900;28;19920;-89
2023/01/08 00:52:21;;;;;;;;;;;10.90;79.50;;;;;;5004752;28;19948;-89
2023/01/08 00:54:47;;;;;;;;;;;10.80;79.70;;;;;;5014804;28;19928;-89
2023/01/08 00:57:12;;;;;;;;;;;10.90;79.50;;;;;;5010726;28;20040;-89
2023/01/08 00:59:38;;;;;;;;;;;10.80;79.90;;;;;;5024797;28;20000;-89
2023/01/08 01:02:03;;;;;;;;;;;10.80;79.80;;;;;;5010848;28;19918;-89
2023/01/08 01:04:29;;;;;;;;;;;10.70;79.60;;;;;;4997749;28;19922;-90
2023/01/08 01:06:55;;;;;;;;;;;10.70;79.70;;;;;;5012064;28;19918;-90
2023/01/08 01:09:20;;;;;;;;;;;10.70;79.90;;;;;;5009353;28;20300;-90
2023/01/08 01:11:46;;;;;;;;;;;10.70;80.00;;;;;;5004405;28;19914;-91
2023/01/08 01:14:11;;;;;;;;;;;10.80;79.90;;;;;;5009375;28;19944;-90
2023/01/08 01:16:38;;;;;;;;;;;10.80;79.40;;;;;;5001187;28;20375;-90
2023/01/08 01:19:04;;;;;;;;;;;10.80;79.50;;;;;;5025357;28;19929;-90
2023/01/08 01:21:30;;;;;;;;;;;10.80;79.40;;;;;;5009778;28;19999;-89
2023/01/08 01:23:57;;;;;;;;;;;10.80;79.30;;;;;;5003146;28;19987;-89
2023/01/08 01:26:23;;;;;;;;;;;10.80;79.30;;;;;;5022419;28;19925;-91
2023/01/08 01:28:49;;;;;;;;;;;10.80;79.30;;;;;;5008959;28;19913;-89
2023/01/08 01:31:15;;;;;;;;;;;10.90;79.20;;;;;;5009324;28;19917;-90
2023/01/08 01:33:41;;;;;;;;;;;10.80;79.00;;;;;;5017871;28;19938;-90
2023/01/08 01:36:07;;;;;;;;;;;10.80;79.20;;;;;;5003552;28;20338;-88
2023/01/08 01:38:33;;;;;;;;;;;10.90;78.90;;;;;;5009241;28;20410;-89
2023/01/08 01:40:58;;;;;;;;;;;11.00;78.60;;;;;;5017957;28;19914;-90
2023/01/08 01:43:38;;;;;;;;;;;10.90;79.10;;;;;;5016515;28;20023;-90
2023/01/08 01:46:05;;;;;;;;;;;11.00;78.60;;;;;;5023211;28;19928;-90
2023/01/08 01:48:31;;;;;;;;;;;11.00;78.60;;;;;;5028872;28;20278;-90
2023/01/08 01:50:56;;;;;;;;;;;11.10;78.20;;;;;;5020957;28;19981;-90
2023/01/08 01:53:30;;;;;;;;;;;11.10;78.20;;;;;;5030135;28;19920;-90
2023/01/08 01:55:56;;;;;;;;;;;11.10;78.20;;;;;;5013803;28;19993;-90
2023/01/08 01:58:23;;;;;;;;;;;11.10;78.20;;;;;;5027431;28;19917;-91
2023/01/08 02:00:49;;;;;;;;;;;11.10;78.10;;;;;;5037721;28;19984;-89
2023/01/08 02:03:15;;;;;;;;;;;11.10;78.10;;;;;;5008834;28;19913;-90
2023/01/08 02:05:48;;;;;;;;;;;11.10;78.10;;;;;;5016822;28;19913;-91
2023/01/08 02:08:20;;;;;;;;;;;11.10;77.90;;;;;;5011642;28;19914;-90
2023/01/08 02:10:46;;;;;;;;;;;11.10;78.30;;;;;;5009042;28;19986;-91
2023/01/08 02:13:21;;;;;;;;;;;11.00;78.50;;;;;;5013974;28;19949;-90
2023/01/08 02:15:46;;;;;;;;;;;11.00;78.90;;;;;;5015614;28;19936;-89
2023/01/08 02:18:15;;;;;;;;;;;11.10;78.20;;;;;;5024322;28;19921;-89
2023/01/08 02:20:47;;;;;;;;;;;11.10;78.30;;;;;;5009257;28;19964;-90
2023/01/08 02:23:31;;;;;;;;;;;11.10;78.10;;;;;;5015115;28;20490;-90
2023/01/08 02:26:04;;;;;;;;;;;11.00;78.80;;;;;;5011771;28;20019;-90
2023/01/08 02:28:31;;;;;;;;;;;11.10;78.60;;;;;;5023156;28;19918;-90
2023/01/08 02:30:57;;;;;;;;;;;11.10;78.80;;;;;;5012915;28;19957;-90
2023/01/08 02:33:23;;;;;;;;;;;11.10;79.00;;;;;;5010332;28;19929;-90
2023/01/08 02:35:54;;;;;;;;;;;11.20;79.50;;;;;;5019881;28;19921;-90
2023/01/08 02:38:20;;;;;;;;;;;11.10;79.50;;;;;;5014042;28;19920;-90
2023/01/08 02:40:52;;;;;;;;;;;11.20;79.40;;;;;;5010183;28;19921;-90
2023/01/08 02:43:24;;;;;;;;;;;11.20;79.90;;;;;;5013112;28;19945;-90
2023/01/08 02:45:51;;;;;;;;;;;11.00;80.30;;;;;;5016809;28;19914;-90
2023/01/08 02:48:25;;;;;;;;;;;11.10;80.60;;;;;;5013270;28;19917;-90
2023/01/08 02:50:53;;;;;;;;;;;11.00;80.80;;;;;;5012798;28;20012;-90
2023/01/08 02:53:21;;;;;;;;;;;11.00;80.60;;;;;;5009101;28;19914;-90
2023/01/08 02:55:49;;;;;;;;;;;11.00;80.80;;;;;;5027542;28;19913;-90
2023/01/08 02:58:15;;;;;;;;;;;11.00;80.70;;;;;;5005213;28;20016;-90
2023/01/08 03:00:42;;;;;;;;;;;10.90;80.90;;;;;;5012921;28;20000;-90
2023/01/08 03:03:11;;;;;;;;;;;11.00;80.70;;;;;;5037119;28;20019;-90
2023/01/08 03:05:39;;;;;;;;;;;11.00;80.70;;;;;;5018409;28;19977;-90
2023/01/08 03:08:04;;;;;;;;;;;10.90;81.30;;;;;;5039200;28;20012;-90
2023/01/08 03:10:31;;;;;;;;;;;10.80;81.30;;;;;;5015581;28;19918;-90
2023/01/08 03:12:59;;;;;;;;;;;10.90;81.20;;;;;;5005247;28;19913;-90
2023/01/08 03:15:36;;;;;;;;;;;11.00;81.30;;;;;;5020575;28;19928;-89
2023/01/08 03:18:09;;;;;;;;;;;11.00;81.10;;;;;;5030916;28;19913;-90
2023/01/08 03:20:36;;;;;;;;;;;11.00;80.90;;;;;;5020768;28;19961;-90
2023/01/08 03:23:04;;;;;;;;;;;11.00;80.90;;;;;;4999584;28;20364;-90
2023/01/08 03:25:30;;;;;;;;;;;11.00;80.70;;;;;;5013535;28;19928;-90
2023/01/08 03:28:01;;;;;;;;;;;11.00;80.80;;;;;;5014704;28;19914;-89
2023/01/08 03:30:28;;;;;;;;;;;11.00;81.20;;;;;;5009016;28;19914;-90
2023/01/08 03:32:54;;;;;;;;;;;11.00;80.90;;;;;;5009970;28;20379;-90
2023/01/08 03:35:21;;;;;;;;;;;11.00;81.20;;;;;;5020631;28;20000;-90
2023/01/08 03:37:51;;;;;;;;;;;10.90;81.40;;;;;;5018223;28;20390;-89
2023/01/08 03:40:18;;;;;;;;;;;10.90;81.50;;;;;;5012227;28;20117;-90
2023/01/08 03:42:44;;;;;;;;;;;11.00;81.30;;;;;;5008218;28;19914;-89
2023/01/08 03:45:09;;;;;;;;;;;10.90;81.10;;;;;;5009517;28;19917;-89
2023/01/08 03:47:36;;;;;;;;;;;10.90;81.50;;;;;;5013684;28;19918;-90
2023/01/08 03:50:05;;;;;;;;;;;10.80;81.80;;;;;;5010102;28;19924;-90
2023/01/08 03:52:31;;;;;;;;;;;10.90;81.60;;;;;;5016726;28;19923;-91
2023/01/08 03:54:57;;;;;;;;;;;11.00;81.40;;;;;;5054830;23;20524;-85
2023/01/08 03:57:25;;;;;;;;;;;10.90;81.20;;;;;;5017195;28;19913;-87
2023/01/08 03:59:53;;;;;;;;;;;10.90;81.60;;;;;;5012258;28;19969;-87
2023/01/08 04:02:18;;;;;;;;;;;10.90;81.30;;;;;;5004975;28;19944;-86
2023/01/08 04:04:47;;;;;;;;;;;10.80;81.70;;;;;;5010905;28;19921;-86
2023/01/08 04:07:12;;;;;;;;;;;10.80;81.90;;;;;;5006885;28;19913;-87
2023/01/08 04:09:38;;;;;;;;;;;10.80;81.80;;;;;;4996618;28;19921;-87
2023/01/08 04:12:04;;;;;;;;;;;10.90;82.10;;;;;;4997876;28;19914;-88
2023/01/08 04:14:29;;;;;;;;;;;10.80;81.60;;;;;;5006431;28;19983;-86
2023/01/08 04:16:55;;;;;;;;;;;10.80;81.90;;;;;;5023714;28;19960;-86
2023/01/08 04:19:23;;;;;;;;;;;10.80;82.00;;;;;;4980932;28;19976;-86
2023/01/08 04:21:50;;;;;;;;;;;10.80;81.70;;;;;;4987801;28;19913;-86
2023/01/08 04:24:16;;;;;;;;;;;10.70;81.90;;;;;;5009059;28;19928;-85
2023/01/08 04:26:41;;;;;;;;;;;10.60;82.30;;;;;;4999329;28;19913;-86
2023/01/08 04:29:07;;;;;;;;;;;10.50;82.60;;;;;;4988054;28;19917;-87
2023/01/08 04:31:32;;;;;;;;;;;10.60;82.80;;;;;;4990490;28;20012;-86
2023/01/08 04:33:58;;;;;;;;;;;10.50;82.90;;;;;;4999825;28;19917;-86
2023/01/08 04:36:23;;;;;;;;;;;10.50;82.90;;;;;;5001254;28;19917;-87
2023/01/08 04:38:49;;;;;;;;;;;10.50;83.00;;;;;;4977190;28;20322;-86
2023/01/08 04:41:17;;;;;;;;;;;10.60;82.80;;;;;;4994833;28;19972;-87
2023/01/08 04:43:42;;;;;;;;;;;10.50;83.20;;;;;;4982643;28;20442;-86
2023/01/08 04:46:08;;;;;;;;;;;10.60;82.70;;;;;;4983285;28;19914;-86
2023/01/08 04:48:47;;;;;;;;;;;10.50;82.90;;;;;;4988713;28;19964;-86
2023/01/08 04:51:13;;;;;;;;;;;10.50;83.10;;;;;;4976075;28;20439;-86
2023/01/08 04:53:40;;;;;;;;;;;10.50;83.30;;;;;;4991609;28;20012;-85
2023/01/08 04:56:07;;;;;;;;;;;10.50;83.20;;;;;;4986061;28;19925;-86
2023/01/08 04:58:33;;;;;;;;;;;10.50;83.30;;;;;;5010402;28;20281;-86
2023/01/08 05:00:58;;;;;;;;;;;10.50;83.40;;;;;;4994675;28;19975;-84
2023/01/08 05:03:24;;;;;;;;;;;10.50;83.30;;;;;;4986596;28;19918;-85
2023/01/08 05:05:51;;;;;;;;;;;10.40;83.40;;;;;;5020637;28;19917;-86
2023/01/08 05:08:17;;;;;;;;;;;10.40;83.50;;;;;;4982296;28;19913;-86
2023/01/08 05:14:03;;;;;;;;;;;10.50;83.90;;;;;;4960179;28;19921;-85
2023/01/08 05:16:30;;;;;;;;;;;10.60;83.20;;;;;;4983818;28;20008;-86
2023/01/08 05:19:05;;;;;;;;;;;10.50;83.10;;;;;;5002346;28;20412;-85
2023/01/08 05:21:38;;;;;;;;;;;10.50;83.40;;;;;;4979864;28;20383;-85
2023/01/08 05:24:04;;;;;;;;;;;10.50;83.60;;;;;;4988811;28;20368;-86
2023/01/08 05:26:31;;;;;;;;;;;10.50;83.20;;;;;;5001853;28;19928;-86
2023/01/08 05:28:57;;;;;;;;;;;10.40;83.20;;;;;;4979985;28;19918;-85
2023/01/08 05:31:23;;;;;;;;;;;10.40;83.20;;;;;;5008467;28;19929;-85
2023/01/08 05:34:21;;;;;;;;;;;10.50;82.80;;;;;;5017224;28;20301;-85
2023/01/08 05:36:57;;;;;;;;;;;10.50;82.30;;;;;;5015241;28;19894;-86
2023/01/08 05:39:29;;;;;;;;;;;10.50;82.70;;;;;;5020710;28;19925;-86
2023/01/08 05:42:00;;;;;;;;;;;10.50;82.90;;;;;;5005530;28;19914;-86
2023/01/08 05:44:33;;;;;;;;;;;10.50;82.70;;;;;;4990154;28;19976;-85
2023/01/08 05:47:02;;;;;;;;;;;10.60;82.40;;;;;;4977639;28;20291;-84
2023/01/08 05:49:27;;;;;;;;;;;10.60;82.50;;;;;;4994556;28;19944;-85
2023/01/08 05:51:53;;;;;;;;;;;10.50;82.50;;;;;;4995863;28;19914;-85
2023/01/08 05:54:18;;;;;;;;;;;10.60;82.20;;;;;;5015527;28;19937;-86
2023/01/08 05:56:44;;;;;;;;;;;10.60;82.00;;;;;;5005703;28;19932;-87
2023/01/08 05:59:10;;;;;;;;;;;10.60;82.30;;;;;;4994951;28;19914;-86
2023/01/08 06:01:35;;;;;;;;;;;10.60;82.20;;;;;;5028358;28;19913;-86
2023/01/08 06:04:03;;;;;;;;;;;10.60;82.30;;;;;;5006864;28;19937;-86
2023/01/08 06:06:29;;;;;;;;;;;10.60;82.20;;;;;;5014868;28;20012;-86
2023/01/08 06:08:54;;;;;;;;;;;10.50;82.20;;;;;;4988350;28;19945;-85
2023/01/08 06:11:20;;;;;;;;;;;10.50;82.80;;;;;;5006991;28;19918;-86
2023/01/08 06:13:45;;;;;;;;;;;10.50;82.50;;;;;;4988222;28;20012;-87
2023/01/08 06:16:11;;;;;;;;;;;10.60;82.30;;;;;;4999935;28;20372;-86
2023/01/08 06:18:36;;;;;;;;;;;10.50;82.10;;;;;;4986553;28;19967;-86
2023/01/08 06:21:03;;;;;;;;;;;10.50;82.40;;;;;;4989310;28;19921;-86
2023/01/08 06:23:28;;;;;;;;;;;10.60;82.10;;;;;;4993202;28;20449;-85
2023/01/08 06:25:55;;;;;;;;;;;10.50;82.30;;;;;;5019685;28;19936;-87
2023/01/08 06:28:20;;;;;;;;;;;10.40;82.80;;;;;;5004890;28;20046;-85
2023/01/08 06:30:46;;;;;;;;;;;10.50;82.60;;;;;;4989644;28;20367;-86
2023/01/08 06:33:11;;;;;;;;;;;10.50;82.50;;;;;;4996436;28;19929;-87
2023/01/08 06:35:37;;;;;;;;;;;10.50;82.60;;;;;;5017930;28;19917;-86
2023/01/08 06:38:02;;;;;;;;;;;10.40;82.80;;;;;;5000231;28;20269;-86
2023/01/08 06:40:28;;;;;;;;;;;10.50;82.90;;;;;;4978988;28;19917;-86
2023/01/08 06:42:53;;;;;;;;;;;10.40;82.60;;;;;;4985934;28;20019;-87
2023/01/08 06:45:19;;;;;;;;;;;10.40;82.80;;;;;;4982140;28;19925;-86
2023/01/08 06:47:44;;;;;;;;;;;10.50;82.40;;;;;;4994055;28;19921;-86
2023/01/08 06:50:11;;;;;;;;;;;10.60;81.70;;;;;;4987668;28;19914;-86
2023/01/08 06:52:37;;;;;;;;;;;10.60;81.90;;;;;;4997516;28;19926;-87
2023/01/08 06:55:03;;;;;;;;;;;10.50;82.20;;;;;;4999431;28;19975;-86
2023/01/08 06:57:29;;;;;;;;;;;10.40;82.50;;;;;;4990224;28;19914;-86
2023/01/08 06:59:55;;;;;;;;;;;10.40;82.40;;;;;;4981941;28;20021;-87
2023/01/08 07:02:20;;;;;;;;;;;10.40;82.10;;;;;;4986807;28;20016;-87
2023/01/08 07:04:46;;;;;;;;;;;10.40;82.30;;;;;;4998381;28;19925;-86
2023/01/08 07:07:12;;;;;;;;;;;10.30;82.30;;;;;;5014120;28;19920;-84
2023/01/08 07:09:38;;;;;;;;;;;10.30;82.60;;;;;;4985303;28;20036;-86
2023/01/08 07:12:04;;;;;;;;;;;10.30;82.20;;;;;;4994023;28;19952;-86
2023/01/08 07:14:29;;;;;;;;;;;10.30;82.30;;;;;;4998806;28;20380;-85
2023/01/08 07:16:55;;;;;;;;;;;10.40;82.20;;;;;;5027987;28;19913;-84
2023/01/08 07:19:20;;;;;;;;;;;10.40;82.00;;;;;;4995387;28;20359;-84
2023/01/08 07:21:45;;;;;;;;;;;10.30;81.70;;;;;;4995009;28;19918;-85
2023/01/08 07:24:11;;;;;;;;;;;10.30;82.30;;;;;;4997402;28;19924;-84
2023/01/08 07:26:38;;;;;;;;;;;10.30;82.50;;;;;;5007821;28;19913;-85
2023/01/08 07:29:04;;;;;;;;;;;10.30;82.80;;;;;;5000566;28;19920;-85
2023/01/08 07:31:29;;;;;;;;;;;10.30;83.40;;;;;;4984663;28;19918;-86
2023/01/08 07:33:55;;;;;;;;;;;10.20;84.40;;;;;;5004553;28;19914;-85
2023/01/08 07:36:21;;;;;;;;;;;10.10;85.10;;;;;;4987503;28;19918;-84
2023/01/08 07:38:48;;;;;;;;;;;10.00;84.60;;;;;;4994716;28;19914;-84
2023/01/08 07:41:14;;;;;;;;;;;9.70;83.70;;;;;;5001777;28;20543;-83
2023/01/08 07:43:39;;;;;;;;;;;9.60;84.10;;;;;;4984321;28;19929;-81
2023/01/08 07:46:05;;;;;;;;;;;9.60;84.10;;;;;;5009615;28;19918;-84
2023/01/08 07:48:30;;;;;;;;;;;9.60;84.30;;;;;;4983252;28;20019;-85
2023/01/08 07:50:59;;;;;;;;;;;9.60;84.70;;;;;;4981215;28;19924;-86
2023/01/08 07:53:25;;;;;;;;;;;9.50;84.00;;;;;;4986348;28;19948;-86
2023/01/08 07:55:50;;;;;;;;;;;9.50;84.30;;;;;;4987107;28;19918;-86
2023/01/08 07:58:16;;;;;;;;;;;9.40;84.40;;;;;;4990407;28;19925;-86
2023/01/08 08:00:41;;;;;;;;;;;9.50;84.60;;;;;;4996114;28;19914;-85
2023/01/08 08:03:08;;;;;;;;;;;9.40;83.90;;;;;;5001358;28;19957;-86
2023/01/08 08:05:33;;;;;;;;;;;9.50;83.90;;;;;;5002378;28;19917;-85
2023/01/08 08:07:59;;;;;;;;;;;9.50;83.40;;;;;;5021371;28;20007;-85
2023/01/08 08:10:25;;;;;;;;;;;9.50;83.30;;;;;;4980983;28;19921;-85
2023/01/08 08:12:50;;;;;;;;;;;9.40;83.40;;;;;;5001397;28;20401;-86
2023/01/08 08:15:18;;;;;;;;;;;9.50;82.90;;;;;;5003264;28;19914;-88
2023/01/08 08:17:44;;;;;;;;;;;9.40;83.30;;;;;;5013545;28;19912;-86
2023/01/08 08:20:09;;;;;;;;;;;9.40;82.90;;;;;;4990481;28;19914;-85
2023/01/08 08:22:35;;;;;;;;;;;9.40;82.70;;;;;;4996157;28;19914;-85
2023/01/08 08:25:00;;;;;;;;;;;9.40;82.80;;;;;;5006754;28;20280;-86
2023/01/08 08:27:26;;;;;;;;;;;9.40;82.80;;;;;;4982617;28;19914;-87
2023/01/08 08:29:51;;;;;;;;;;;9.30;82.40;;;;;;5001512;28;19914;-84
2023/01/08 08:32:16;;;;;;;;;;;9.30;82.40;;;;;;4997486;28;19921;-83
2023/01/08 08:34:42;;;;;;;;;;;9.30;82.00;;;;;;5002762;28;19914;-84
2023/01/08 08:37:08;;;;;;;;;;;9.40;81.80;;;;;;5000551;28;19940;-84
2023/01/08 08:39:33;;;;;;;;;;;9.30;81.30;;;;;;4996700;28;19922;-85
2023/01/08 08:41:59;;;;;;;;;;;9.30;80.90;;;;;;5003197;28;20264;-83
2023/01/08 08:44:24;;;;;;;;;;;9.40;80.40;;;;;;4997156;28;19981;-82
2023/01/08 08:46:50;;;;;;;;;;;9.40;80.40;;;;;;4996038;28;19960;-85
2023/01/08 08:49:32;;;;;;;;;;;9.40;79.80;;;;;;4990852;28;19932;-87
2023/01/08 08:51:57;;;;;;;;;;;9.30;80.10;;;;;;5011769;28;19910;-85
2023/01/08 08:54:23;;;;;;;;;;;9.20;80.10;;;;;;5028763;28;19969;-87
2023/01/08 08:56:48;;;;;;;;;;;9.20;79.70;;;;;;5013964;28;19941;-86
2023/01/08 08:59:14;;;;;;;;;;;9.20;79.50;;;;;;4986844;28;19924;-85
2023/01/08 09:01:39;;;;;;;;;;;9.10;79.60;;;;;;5003813;28;19909;-85
2023/01/08 09:04:05;;;;;;;;;;;9.10;79.30;;;;;;4985534;28;20300;-85
2023/01/08 09:06:39;;;;;;;;;;;9.10;79.20;;;;;;4993921;28;19913;-84
2023/01/08 09:09:05;;;;;;;;;;;9.10;78.50;;;;;;4979053;28;19964;-87
2023/01/08 09:11:30;;;;;;;;;;;9.00;78.10;;;;;;4978147;28;19949;-82
2023/01/08 09:13:56;;;;;;;;;;;9.00;78.30;;;;;;4992735;28;19909;-82
2023/01/08 09:16:21;;;;;;;;;;;9.10;78.40;;;;;;4998944;28;19917;-81
2023/01/08 09:18:48;;;;;;;;;;;9.10;78.60;;;;;;4993009;28;19922;-82
2023/01/08 09:21:13;;;;;;;;;;;9.10;79.10;;;;;;5000795;28;20020;-86
2023/01/08 09:23:38;;;;;;;;;;;9.00;79.00;;;;;;4995077;28;20117;-82
2023/01/08 09:26:05;;;;;;;;;;;9.00;79.20;;;;;;4999045;28;19913;-82
2023/01/08 09:28:30;;;;;;;;;;;9.10;78.70;;;;;;4999735;28;19913;-83
2023/01/08 09:30:55;;;;;;;;;;;9.00;78.80;;;;;;4999252;28;19957;-83
2023/01/08 09:33:21;;;;;;;;;;;9.10;78.20;;;;;;4992691;28;19961;-82
2023/01/08 09:35:46;;;;;;;;;;;9.10;78.80;;;;;;5006872;28;20288;-83
2023/01/08 09:38:12;;;;;;;;;;;9.10;78.80;;;;;;5019409;28;19914;-82
2023/01/08 09:40:50;;;;;;;;;;;9.20;78.40;;;;;;5003963;28;19964;-83
2023/01/08 09:43:17;;;;;;;;;;;9.20;78.30;;;;;;5016643;28;19921;-83
2023/01/08 09:45:44;;;;;;;;;;;9.30;78.50;;;;;;5007670;28;19918;-83
2023/01/08 09:48:14;;;;;;;;;;;9.30;78.10;;;;;;5018014;28;19944;-83
2023/01/08 09:50:39;;;;;;;;;;;9.40;77.90;;;;;;5023198;28;20013;-82
2023/01/08 09:53:09;;;;;;;;;;;9.40;77.80;;;;;;4996050;28;19980;-83
2023/01/08 09:55:34;;;;;;;;;;;9.50;77.70;;;;;;5046986;23;20350;-86
2023/01/08 09:58:00;;;;;;;;;;;9.50;77.40;;;;;;5037501;28;19913;-89
2023/01/08 10:00:28;;;;;;;;;;;9.50;77.30;;;;;;5019458;28;19952;-88
2023/01/08 10:02:54;;;;;;;;;;;9.50;77.80;;;;;;5035275;28;19913;-88
2023/01/08 10:05:19;;;;;;;;;;;9.50;77.40;;;;;;5035757;28;19932;-88
2023/01/08 10:07:45;;;;;;;;;;;9.60;77.20;;;;;;5001743;28;19924;-87
2023/01/08 10:10:31;;;;;;;;;;;9.60;76.90;;;;;;5001233;28;19973;-89
2023/01/08 10:12:56;;;;;;;;;;;9.80;76.90;;;;;;4989100;28;19914;-88
2023/01/08 10:15:22;;;;;;;;;;;9.90;76.60;;;;;;4987732;28;20275;-88
2023/01/08 10:17:53;;;;;;;;;;;9.90;76.80;;;;;;5021391;28;19914;-88
2023/01/08 10:20:21;;;;;;;;;;;9.90;77.20;;;;;;5011883;28;19941;-89
2023/01/08 10:22:47;;;;;;;;;;;9.90;77.10;;;;;;4996930;28;20345;-88
2023/01/08 10:25:15;;;;;;;;;;;10.00;76.90;;;;;;5011314;28;19925;-89
2023/01/08 10:28:06;;;;;;;;;;;10.00;77.20;;;;;;5011246;28;19914;-90
2023/01/08 10:30:38;;;;;;;;;;;10.00;77.00;;;;;;5009298;28;19944;-89
2023/01/08 10:33:08;;;;;;;;;;;10.10;76.60;;;;;;4996161;28;19924;-87
2023/01/08 10:35:35;;;;;;;;;;;10.20;76.60;;;;;;5017939;28;19910;-88
2023/01/08 10:38:01;;;;;;;;;;;10.20;76.30;;;;;;5002934;28;19971;-87
2023/01/08 10:40:35;;;;;;;;;;;10.20;77.10;;;;;;4995318;28;19921;-88
2023/01/08 10:43:05;;;;;;;;;;;10.30;77.00;;;;;;5028076;28;19968;-89
2023/01/08 10:45:31;;;;;;;;;;;10.30;76.90;;;;;;4989378;28;20016;-88
2023/01/08 10:47:59;;;;;;;;;;;10.40;76.50;;;;;;4998780;28;20430;-89
2023/01/08 10:50:29;;;;;;;;;;;10.30;76.30;;;;;;5016493;28;19917;-88
2023/01/08 10:52:59;;;;;;;;;;;10.40;76.40;;;;;;5017619;28;20401;-87
2023/01/08 10:55:31;;;;;;;;;;;10.30;76.10;;;;;;5020510;28;19921;-88
2023/01/08 10:58:11;;;;;;;;;;;10.40;76.30;;;;;;4997417;28;19918;-88
2023/01/08 11:00:37;;;;;;;;;;;10.40;76.20;;;;;;4996665;28;19914;-88
2023/01/08 11:03:04;;;;;;;;;;;10.30;76.60;;;;;;5014293;28;19940;-89
2023/01/08 11:05:39;;;;;;;;;;;10.40;76.30;;;;;;5005042;28;19917;-89
2023/01/08 11:08:25;;;;;;;;;;;10.50;76.70;;;;;;5018415;28;19924;-87
2023/01/08 11:10:51;;;;;;;;;;;10.50;76.60;;;;;;5003622;28;19920;-89
2023/01/08 11:13:18;;;;;;;;;;;10.50;76.90;;;;;;5003400;28;20358;-88
2023/01/08 11:15:44;;;;;;;;;;;10.50;77.00;;;;;;5016470;28;19992;-88
2023/01/08 11:18:12;;;;;;;;;;;10.50;76.10;;;;;;5010064;28;19968;-87
2023/01/08 11:20:38;;;;;;;;;;;10.60;76.70;;;;;;5022156;28;19936;-87
2023/01/08 11:23:10;;;;;;;;;;;10.80;76.30;;;;;;5006744;28;20379;-87
2023/01/08 11:25:36;;;;;;;;;;;10.80;76.50;;;;;;5029344;28;19929;-87
2023/01/08 11:28:03;;;;;;;;;;;10.80;76.20;;;;;;5046024;28;19935;-88
2023/01/08 11:30:31;;;;;;;;;;;10.80;76.50;;;;;;5012784;28;19918;-88
2023/01/08 11:33:00;;;;;;;;;;;10.90;76.40;;;;;;5015135;28;19993;-89
2023/01/08 11:35:28;;;;;;;;;;;11.00;76.10;;;;;;4995014;28;19937;-90
2023/01/08 11:38:04;;;;;;;;;;;11.00;76.00;;;;;;4998618;28;19914;-92
2023/01/08 11:41:02;;;;;;;;;;;11.00;75.80;;;;;;4996501;28;19936;-92
2023/01/08 11:43:40;;;;;;;;;;;11.20;75.50;;;;;;5005700;28;19914;-90
2023/01/08 11:46:37;;;;;;;;;;;11.20;75.10;;;;;;4993947;28;19941;-90
2023/01/08 11:49:21;;;;;;;;;;;11.20;74.60;;;;;;5000651;28;19902;-92
2023/01/08 11:52:02;;;;;;;;;;;11.40;75.10;;;;;;5022808;28;19955;-88
2023/01/08 11:57:25;;;;;;;;;;;11.50;74.70;;;;;;5034842;22;19932;-81
2023/01/08 12:00:10;;;;;;;;;;;11.50;74.40;;;;;;4995016;28;19949;-83
2023/01/08 12:02:53;;;;;;;;;;;11.50;74.20;;;;;;4998664;28;19944;-80
2023/01/08 12:05:37;;;;;;;;;;;11.60;73.80;;;;;;4996398;28;20293;-82
2023/01/08 12:08:03;;;;;;;;;;;11.60;73.60;;;;;;5028299;28;20540;-83
2023/01/08 12:10:28;;;;;;;;;;;11.50;73.60;;;;;;4982929;28;19914;-84
2023/01/08 12:13:26;;;;;;;;;;;11.50;73.90;;;;;;5007172;28;21125;-83
2023/01/08 12:15:58;;;;;;;;;;;11.50;73.50;;;;;;4975644;28;19928;-84
2023/01/08 12:18:45;;;;;;;;;;;11.50;74.20;;;;;;4997062;28;19917;-84
2023/01/08 12:21:31;;;;;;;;;;;11.50;73.60;;;;;;4994665;28;20365;-85
2023/01/08 12:24:02;;;;;;;;;;;11.70;73.20;;;;;;5007688;28;19949;-84
2023/01/08 12:26:53;;;;;;;;;;;11.80;73.60;;;;;;4977964;28;19954;-84
2023/01/08 12:29:26;;;;;;;;;;;11.70;72.90;;;;;;4992689;28;19914;-84
2023/01/08 12:31:58;;;;;;;;;;;11.80;72.90;;;;;;4999617;28;19929;-83
2023/01/08 12:34:35;;;;;;;;;;;11.70;72.30;;;;;;5002159;28;20466;-83
2023/01/08 12:37:12;;;;;;;;;;;11.70;73.40;;;;;;4987976;28;19914;-86
2023/01/08 12:39:44;;;;;;;;;;;11.80;73.20;;;;;;5005358;28;19917;-83
2023/01/08 12:42:12;;;;;;;;;;;11.90;73.20;;;;;;4988832;28;19979;-86
2023/01/08 12:44:38;;;;;;;;;;;12.00;72.80;;;;;;4996863;28;19972;-83
2023/01/08 12:47:05;;;;;;;;;;;11.90;72.80;;;;;;4990238;28;19917;-86
2023/01/08 12:49:53;;;;;;;;;;;12.00;72.30;;;;;;4991995;28;19921;-83
2023/01/08 12:52:21;;;;;;;;;;;12.00;72.00;;;;;;4993961;28;21764;-85
2023/01/08 12:54:53;;;;;;;;;;;12.00;72.70;;;;;;5011806;28;19917;-85
2023/01/08 12:57:44;;;;;;;;;;;12.00;72.00;;;;;;4991204;28;19988;-84
2023/01/08 13:00:22;;;;;;;;;;;11.90;72.80;;;;;;4980292;28;20003;-84
2023/01/08 13:02:56;;;;;;;;;;;11.70;73.70;;;;;;4982782;28;19948;-85
2023/01/08 13:05:22;;;;;;;;;;;11.60;75.30;;;;;;5010583;28;19928;-83
2023/01/08 13:07:49;;;;;;;;;;;11.30;78.40;;;;;;4987080;28;19914;-87
2023/01/08 13:10:30;;;;;;;;;;;10.90;80.10;;;;;;4987694;28;20408;-86
2023/01/08 13:12:56;;;;;;;;;;;10.60;81.60;;;;;;5008296;28;19917;-86
2023/01/08 13:15:24;;;;;;;;;;;10.30;82.30;;;;;;4987692;28;19963;-85
2023/01/08 13:17:50;;;;;;;;;;;10.00;82.90;;;;;;4986458;28;20749;-85
2023/01/08 13:20:24;;;;;;;;;;;9.90;83.70;;;;;;4987743;28;19921;-85
2023/01/08 13:23:13;;;;;;;;;;;9.70;84.10;;;;;;4988778;28;19922;-85
2023/01/08 13:25:49;;;;;;;;;;;9.70;84.30;;;;;;5006370;28;20373;-86
2023/01/08 13:28:23;;;;;;;;;;;9.70;85.00;;;;;;5010688;28;19914;-86
2023/01/08 13:30:49;;;;;;;;;;;9.50;84.80;;;;;;4986427;28;19913;-85
2023/01/08 13:33:26;;;;;;;;;;;9.50;84.90;;;;;;4982099;28;19967;-85
2023/01/08 13:35:52;;;;;;;;;;;9.50;85.10;;;;;;5000816;28;19952;-86
2023/01/08 13:38:18;;;;;;;;;;;9.40;85.30;;;;;;5007750;28;19952;-86
2023/01/08 13:40:44;;;;;;;;;;;9.40;85.50;;;;;;4987449;28;20366;-86
2023/01/08 13:43:14;;;;;;;;;;;9.40;85.80;;;;;;4991036;28;19929;-85
2023/01/08 13:45:40;;;;;;;;;;;9.40;85.50;;;;;;4991575;28;19995;-85
2023/01/08 13:48:18;;;;;;;;;;;9.50;85.20;;;;;;4999714;28;19913;-85
2023/01/08 13:50:45;;;;;;;;;;;9.50;84.70;;;;;;5002168;28;19914;-85
2023/01/08 13:53:12;;;;;;;;;;;9.50;83.50;;;;;;5013699;28;19909;-86
2023/01/08 13:55:41;;;;;;;;;;;9.50;83.60;;;;;;5012541;28;21879;-86
2023/01/08 13:58:10;;;;;;;;;;;9.50;84.30;;;;;;5007149;28;19918;-83
2023/01/08 14:00:42;;;;;;;;;;;9.50;83.20;;;;;;4982147;28;19968;-84
2023/01/08 14:03:27;;;;;;;;;;;9.60;83.60;;;;;;4987375;28;19913;-85
2023/01/08 14:06:04;;;;;;;;;;;9.50;84.00;;;;;;4997554;28;20001;-85
2023/01/08 14:08:30;;;;;;;;;;;9.50;83.10;;;;;;4991723;28;19966;-85
2023/01/08 14:10:55;;;;;;;;;;;9.50;83.10;;;;;;4994272;28;19953;-85
2023/01/08 14:13:25;;;;;;;;;;;9.50;83.10;;;;;;4992654;28;20235;-81
2023/01/08 14:15:51;;;;;;;;;;;9.60;83.00;;;;;;5027653;28;20380;-84
2023/01/08 14:18:17;;;;;;;;;;;9.50;82.60;;;;;;5010823;28;19921;-85
2023/01/08 14:20:43;;;;;;;;;;;9.50;82.60;;;;;;4995081;28;19947;-86
2023/01/08 14:23:17;;;;;;;;;;;9.60;82.00;;;;;;5002305;28;19917;-82
2023/01/08 14:25:46;;;;;;;;;;;9.60;81.80;;;;;;5005458;28;19918;-85
2023/01/08 14:28:14;;;;;;;;;;;9.50;82.30;;;;;;5013875;28;19987;-85
2023/01/08 14:30:46;;;;;;;;;;;9.60;81.50;;;;;;5001190;28;19918;-85
2023/01/08 14:33:12;;;;;;;;;;;9.60;81.40;;;;;;5007601;28;19917;-85
2023/01/08 14:35:38;;;;;;;;;;;9.60;81.80;;;;;;4998609;28;19921;-85